Time;durP1;ratioP1;P1;durP2;ratioP2;P2;SDS_P1;SDS_P2;PMS_P1;PMS_P2;Temp;Humidity;BMP_temperature;BMP_pressure;BME280_temperature;BME280_humidity;BME280_pressure;Samples;Min_cycle;Max_cycle;Signal;HPM_P1;HPM_P2
2022/01/22 00:00:24;;;;;;;1.88;1.45;;;;;;;;;;5098756;28;20071;-79
2022/01/22 00:02:50;;;;;;;1.42;1.33;;;;;;;;;;5102697;28;20397;-79
2022/01/22 00:05:17;;;;;;;3.00;2.10;;;;;;;;;;5103866;28;20027;-81
2022/01/22 00:07:42;;;;;;;2.60;1.90;;;;;;;;;;5101520;28;20024;-80
2022/01/22 00:10:14;;;;;;;2.63;1.90;;;;;;;;;;5103079;28;20028;-80
2022/01/22 00:12:56;;;;;;;2.33;1.75;;;;;;;;;;5102471;28;20050;-80
2022/01/22 00:15:24;;;;;;;3.22;1.60;;;;;;;;;;5103629;28;20042;-80
2022/01/22 00:17:51;;;;;;;3.00;1.60;;;;;;;;;;5103010;28;20075;-79
2022/01/22 00:20:18;;;;;;;1.98;1.42;;;;;;;;;;5103527;28;20020;-79
2022/01/22 00:22:44;;;;;;;3.40;1.52;;;;;;;;;;5103331;28;20463;-80
2022/01/22 00:25:12;;;;;;;1.90;1.30;;;;;;;;;;5101660;28;20024;-78
2022/01/22 00:27:39;;;;;;;1.88;1.38;;;;;;;;;;5101479;28;20024;-81
2022/01/22 00:30:07;;;;;;;3.00;1.80;;;;;;;;;;5101581;28;20035;-80
2022/01/22 00:32:32;;;;;;;2.78;1.70;;;;;;;;;;5105730;28;20024;-80
2022/01/22 00:34:57;;;;;;;2.35;1.50;;;;;;;;;;5103940;28;20093;-79
2022/01/22 00:37:23;;;;;;;2.88;1.75;;;;;;;;;;5101341;28;20384;-81
2022/01/22 00:39:48;;;;;;;2.75;1.95;;;;;;;;;;5100518;28;20038;-79
2022/01/22 00:42:15;;;;;;;3.58;1.77;;;;;;;;;;5101623;28;20035;-80
2022/01/22 00:44:41;;;;;;;1.90;1.40;;;;;;;;;;5104041;28;20393;-80
2022/01/22 00:47:07;;;;;;;2.13;1.80;;;;;;;;;;5103189;28;20030;-79
2022/01/22 00:49:34;;;;;;;2.00;1.38;;;;;;;;;;5103980;28;20091;-81
2022/01/22 00:51:59;;;;;;;3.33;1.60;;;;;;;;;;5104257;28;20020;-79
2022/01/22 00:54:24;;;;;;;2.20;1.52;;;;;;;;;;5106801;28;20074;-80
2022/01/22 00:56:49;;;;;;;1.33;1.23;;;;;;;;;;5104289;28;20024;-81
2022/01/22 00:59:15;;;;;;;2.28;1.40;;;;;;;;;;5104114;28;20031;-79
2022/01/22 01:01:40;;;;;;;1.48;1.25;;;;;;;;;;5106063;28;20050;-79
2022/01/22 01:04:08;;;;;;;1.52;1.25;;;;;;;;;;5112027;28;20024;-79
2022/01/22 01:06:34;;;;;;;1.25;1.13;;;;;;;;;;5113799;28;20020;-80
2022/01/22 01:09:06;;;;;;;1.58;1.30;;;;;;;;;;5114420;28;20012;-79
2022/01/22 01:11:33;;;;;;;1.73;1.17;;;;;;;;;;5113969;28;20012;-80
2022/01/22 01:14:01;;;;;;;1.45;0.95;;;;;;;;;;5117769;28;20009;-79
2022/01/22 01:16:57;;;;;;;1.10;1.00;;;;;;;;;;5105414;28;20012;-79
2022/01/22 01:33:05;;;;;;;1.42;1.00;;;;;;;;;;5099652;28;20035;-79
2022/01/22 01:35:33;;;;;;;0.70;0.70;;;;;;;;;;5099271;28;20191;-79
2022/01/22 01:38:01;;;;;;;1.58;0.98;;;;;;;;;;5100104;28;20020;-79
2022/01/22 01:40:28;;;;;;;1.17;1.00;;;;;;;;;;5099012;28;20074;-80
2022/01/22 01:43:06;;;;;;;0.68;0.63;;;;;;;;;;5101884;28;20020;-80
2022/01/22 01:45:32;;;;;;;1.67;0.93;;;;;;;;;;5104001;28;20024;-80
2022/01/22 01:48:04;;;;;;;1.35;0.80;;;;;;;;;;5104665;28;20088;-81
2022/01/22 01:50:31;;;;;;;0.80;0.80;;;;;;;;;;5104680;28;20024;-82
2022/01/22 01:57:23;;;;;;;0.95;0.80;;;;;;;;;;5105491;28;20027;-80
2022/01/22 01:58:19;;;;;;;0.70;0.70;;;;;;;;;;5099490;28;20032;-79
2022/01/22 02:00:45;;;;;;;0.88;0.70;;;;;;;;;;5105731;28;20058;-80
2022/01/22 02:03:12;;;;;;;1.05;0.85;;;;;;;;;;5104432;28;20047;-80
2022/01/22 02:05:38;;;;;;;1.05;0.95;;;;;;;;;;5103387;28;20474;-80
2022/01/22 02:08:04;;;;;;;0.30;0.30;;;;;;;;;;5103070;28;20100;-79
2022/01/22 02:10:33;;;;;;;1.33;0.77;;;;;;;;;;5100802;28;20051;-79
2022/01/22 02:23:56;;;;;;;0.82;0.73;;;;;;;;;;5104403;28;20030;-80
2022/01/22 02:26:21;;;;;;;0.82;0.80;;;;;;;;;;5104373;28;20083;-80
2022/01/22 02:28:49;;;;;;;0.70;0.70;;;;;;;;;;5105737;28;20048;-79
2022/01/22 02:31:27;;;;;;;1.02;0.80;;;;;;;;;;5103677;28;20538;-80
2022/01/22 02:34:04;;;;;;;1.00;0.90;;;;;;;;;;5103837;28;20020;-80
2022/01/22 02:36:37;;;;;;;1.30;0.90;;;;;;;;;;5103430;28;20040;-79
2022/01/22 02:39:13;;;;;;;0.95;0.80;;;;;;;;;;5103137;28;20370;-78
2022/01/22 02:41:43;;;;;;;0.98;0.63;;;;;;;;;;5104908;28;20028;-81
2022/01/22 02:44:14;;;;;;;1.00;0.77;;;;;;;;;;5106345;28;20050;-79
2022/01/22 02:46:42;;;;;;;1.48;1.08;;;;;;;;;;5103564;28;20015;-79
2022/01/22 02:49:08;;;;;;;1.05;0.90;;;;;;;;;;5104028;28;20051;-80
2022/01/22 02:51:33;;;;;;;1.65;1.00;;;;;;;;;;5106103;28;20028;-79
2022/01/22 02:54:00;;;;;;;0.88;0.82;;;;;;;;;;5105753;28;20045;-79
2022/01/22 02:56:25;;;;;;;1.75;1.10;;;;;;;;;;5104698;28;20112;-80
2022/01/22 02:58:52;;;;;;;0.80;0.75;;;;;;;;;;5106556;28;20024;-79
2022/01/22 03:01:18;;;;;;;1.33;1.23;;;;;;;;;;5105631;28;20016;-80
2022/01/22 03:03:44;;;;;;;2.15;1.25;;;;;;;;;;5105407;28;20059;-79
2022/01/22 03:06:09;;;;;;;1.15;1.02;;;;;;;;;;5104045;28;20045;-80
2022/01/22 03:08:35;;;;;;;1.15;1.05;;;;;;;;;;5104704;28;20038;-80
2022/01/22 03:11:05;;;;;;;1.40;1.13;;;;;;;;;;5105952;28;20024;-79
2022/01/22 03:18:45;;;;;;;1.23;0.93;;;;;;;;;;5105847;28;20024;-81
2022/01/22 03:21:26;;;;;;;1.88;1.20;;;;;;;;;;5105642;28;20058;-80
2022/01/22 03:27:21;;;;;;;1.48;1.20;;;;;;;;;;5105604;28;20028;-79
2022/01/22 03:29:36;;;;;;;1.83;1.25;;;;;;;;;;5105559;28;20027;-81
2022/01/22 03:32:03;;;;;;;1.35;1.08;;;;;;;;;;5104809;28;20550;-80
2022/01/22 03:34:30;;;;;;;1.25;0.98;;;;;;;;;;5103442;28;20032;-80
2022/01/22 03:36:55;;;;;;;1.05;0.90;;;;;;;;;;5105506;28;20024;-80
2022/01/22 03:39:20;;;;;;;0.93;0.82;;;;;;;;;;5104653;28;20028;-80
2022/01/22 03:41:47;;;;;;;1.08;0.98;;;;;;;;;;5111004;28;20011;-79
2022/01/22 03:44:13;;;;;;;1.50;1.00;;;;;;;;;;5117203;28;20039;-78
2022/01/22 03:46:41;;;;;;;0.77;0.77;;;;;;;;;;5112257;28;20389;-79
2022/01/22 03:49:10;;;;;;;1.88;0.90;;;;;;;;;;5097691;28;20485;-79
2022/01/22 03:51:35;;;;;;;1.30;0.90;;;;;;;;;;5098125;28;20038;-80
2022/01/22 03:54:00;;;;;;;1.08;0.80;;;;;;;;;;5096952;28;20087;-79
2022/01/22 03:56:26;;;;;;;0.95;0.80;;;;;;;;;;5098793;28;20384;-79
2022/01/22 03:58:52;;;;;;;0.73;0.70;;;;;;;;;;5099946;28;20489;-80
2022/01/22 04:04:03;;;;;;;0.93;0.75;;;;;;;;;;5100432;28;20098;-78
2022/01/22 04:09:05;;;;;;;1.25;0.77;;;;;;;;;;5100452;28;20032;-79
2022/01/22 04:11:34;;;;;;;1.50;0.90;;;;;;;;;;5100928;28;20027;-80
2022/01/22 04:14:03;;;;;;;1.65;1.00;;;;;;;;;;5100968;28;20024;-79
2022/01/22 04:16:29;;;;;;;0.65;0.65;;;;;;;;;;5102296;28;20438;-80
2022/01/22 04:27:10;;;;;;;0.93;0.85;;;;;;;;;;5101535;28;20030;-80
2022/01/22 04:29:36;;;;;;;0.75;0.75;;;;;;;;;;5101494;28;20036;-80
2022/01/22 04:32:01;;;;;;;0.75;0.70;;;;;;;;;;5102163;28;20023;-80
2022/01/22 04:34:27;;;;;;;1.30;0.95;;;;;;;;;;5101420;28;20030;-79
2022/01/22 04:36:52;;;;;;;3.45;0.90;;;;;;;;;;5101980;28;20028;-78
2022/01/22 04:39:19;;;;;;;0.68;0.65;;;;;;;;;;5100437;28;20027;-79
2022/01/22 04:41:45;;;;;;;0.60;0.60;;;;;;;;;;5100381;28;20035;-79
2022/01/22 04:44:10;;;;;;;0.60;0.60;;;;;;;;;;5101839;28;20020;-80
2022/01/22 04:52:28;;;;;;;0.80;0.75;;;;;;;;;;5101122;28;20115;-79
2022/01/22 04:54:59;;;;;;;0.65;0.50;;;;;;;;;;5055956;28;20028;-80
2022/01/22 04:57:29;;;;;;;0.47;0.47;;;;;;;;;;5100778;28;20027;-79
2022/01/22 04:59:54;;;;;;;1.85;0.70;;;;;;;;;;5100711;28;20032;-80
2022/01/22 05:02:20;;;;;;;0.60;0.50;;;;;;;;;;5101711;28;20431;-79
2022/01/22 05:04:45;;;;;;;0.40;0.40;;;;;;;;;;5100248;28;20026;-80
2022/01/22 05:07:10;;;;;;;2.90;0.47;;;;;;;;;;5100752;28;20027;-80
2022/01/22 05:09:36;;;;;;;7.80;0.98;;;;;;;;;;5101340;28;20028;-79
2022/01/22 05:12:01;;;;;;;0.70;0.70;;;;;;;;;;5102166;28;20059;-79
2022/01/22 05:14:27;;;;;;;0.75;0.75;;;;;;;;;;5102551;28;20052;-79
2022/01/22 05:16:54;;;;;;;0.77;0.70;;;;;;;;;;5099672;28;20061;-80
2022/01/22 05:19:36;;;;;;;0.80;0.80;;;;;;;;;;5101877;28;20020;-79
2022/01/22 05:22:12;;;;;;;1.25;1.08;;;;;;;;;;5102864;28;20024;-80
2022/01/22 05:24:42;;;;;;;1.65;1.15;;;;;;;;;;5102479;28;20028;-79
2022/01/22 05:27:30;;;;;;;1.33;1.10;;;;;;;;;;5101428;28;20045;-79
2022/01/22 05:30:06;;;;;;;1.23;1.08;;;;;;;;;;5101634;28;20020;-79
2022/01/22 05:32:55;;;;;;;1.17;0.90;;;;;;;;;;5102318;28;20036;-79
2022/01/22 05:38:07;;;;;;;3.33;1.08;;;;;;;;;;5101742;28;20054;-80
2022/01/22 05:40:32;;;;;;;1.92;1.20;;;;;;;;;;5103680;28;20031;-81
2022/01/22 05:42:58;;;;;;;3.45;1.50;;;;;;;;;;5103405;28;20028;-80
2022/01/22 05:45:23;;;;;;;3.33;1.30;;;;;;;;;;5101145;28;20034;-80
2022/01/22 05:47:48;;;;;;;1.10;0.85;;;;;;;;;;5101771;28;20144;-80
2022/01/22 05:50:26;;;;;;;1.23;1.02;;;;;;;;;;5103025;28;20028;-79
2022/01/22 05:52:59;;;;;;;2.92;1.40;;;;;;;;;;5106230;28;20020;-78
2022/01/22 06:00:34;;;;;;;1.25;0.95;;;;;;;;;;5100097;28;20510;-78
2022/01/22 06:02:59;;;;;;;4.50;1.65;;;;;;;;;;5100730;28;20028;-79
2022/01/22 06:05:24;;;;;;;2.20;1.58;;;;;;;;;;5101156;28;20024;-79
2022/01/22 06:07:50;;;;;;;2.42;1.45;;;;;;;;;;5101887;28;20022;-78
2022/01/22 06:10:25;;;;;;;2.30;1.35;;;;;;;;;;5100977;28;20032;-79
2022/01/22 06:15:16;;;;;;;1.63;1.00;;;;;;;;;;5100314;28;20089;-79
2022/01/22 06:17:41;;;;;;;1.35;1.13;;;;;;;;;;5104478;28;20275;-79
2022/01/22 06:20:07;;;;;;;2.10;1.45;;;;;;;;;;5103568;28;20020;-80
2022/01/22 06:22:33;;;;;;;2.78;1.40;;;;;;;;;;5102646;28;20465;-80
2022/01/22 06:24:58;;;;;;;3.45;1.38;;;;;;;;;;5102513;28;20070;-79
2022/01/22 06:27:24;;;;;;;2.25;1.40;;;;;;;;;;5105379;28;20032;-80
2022/01/22 06:29:49;;;;;;;1.50;1.13;;;;;;;;;;5103759;28;20473;-80
2022/01/22 06:32:14;;;;;;;2.38;1.50;;;;;;;;;;5102852;28;20032;-80
2022/01/22 06:34:39;;;;;;;1.85;1.48;;;;;;;;;;5106085;28;20068;-80
2022/01/22 06:37:04;;;;;;;2.40;1.30;;;;;;;;;;5104920;28;20032;-80
2022/01/22 06:39:40;;;;;;;2.38;1.30;;;;;;;;;;5102835;28;20388;-80
2022/01/22 06:42:05;;;;;;;3.10;1.42;;;;;;;;;;5102830;28;20015;-80
2022/01/22 06:44:34;;;;;;;2.10;1.17;;;;;;;;;;5101252;28;20046;-80
2022/01/22 06:46:59;;;;;;;3.88;1.48;;;;;;;;;;5099996;28;20028;-81
2022/01/22 06:49:24;;;;;;;3.53;1.20;;;;;;;;;;5102107;28;20115;-80
2022/01/22 06:51:51;;;;;;;2.30;1.48;;;;;;;;;;5102808;28;20035;-80
2022/01/22 06:54:16;;;;;;;2.42;1.20;;;;;;;;;;5100898;28;20020;-80
2022/01/22 06:56:41;;;;;;;4.07;1.55;;;;;;;;;;5100732;28;20109;-80
2022/01/22 06:59:08;;;;;;;4.80;1.60;;;;;;;;;;5099571;28;20020;-79
2022/01/22 07:01:35;;;;;;;2.55;1.40;;;;;;;;;;5099801;28;20020;-80
2022/01/22 07:04:00;;;;;;;2.67;1.70;;;;;;;;;;5101621;28;20598;-80
2022/01/22 07:06:26;;;;;;;2.03;1.50;;;;;;;;;;5101283;28;20045;-80
2022/01/22 07:08:51;;;;;;;3.97;1.70;;;;;;;;;;5101647;28;20073;-80
2022/01/22 07:11:17;;;;;;;2.60;1.65;;;;;;;;;;5101213;28;20020;-79
2022/01/22 07:13:42;;;;;;;2.50;1.60;;;;;;;;;;5101523;28;20027;-80
2022/01/22 07:16:08;;;;;;;4.45;1.77;;;;;;;;;;5101148;28;20024;-80
2022/01/22 07:18:34;;;;;;;4.07;1.83;;;;;;;;;;5100768;28;20038;-80
2022/01/22 07:21:03;;;;;;;3.13;1.58;;;;;;;;;;5101465;28;20024;-80
2022/01/22 07:25:59;;;;;;;3.85;2.05;;;;;;;;;;5102348;28;20024;-80
2022/01/22 07:28:25;;;;;;;4.95;1.98;;;;;;;;;;5099484;28;20068;-81
2022/01/22 07:30:50;;;;;;;4.18;1.45;;;;;;;;;;5101595;28;20031;-80
2022/01/22 07:33:15;;;;;;;2.95;1.65;;;;;;;;;;5098770;28;20030;-80
2022/01/22 07:35:40;;;;;;;2.03;1.38;;;;;;;;;;5100224;28;20031;-80
2022/01/22 07:38:06;;;;;;;4.18;1.92;;;;;;;;;;5099755;28;20028;-78
2022/01/22 07:40:31;;;;;;;4.65;1.85;;;;;;;;;;5098787;28;20035;-79
2022/01/22 07:42:57;;;;;;;2.78;1.80;;;;;;;;;;5100506;28;20028;-81
2022/01/22 07:45:22;;;;;;;1.80;1.40;;;;;;;;;;5097998;28;20027;-81
2022/01/22 07:47:48;;;;;;;2.55;1.75;;;;;;;;;;5099384;28;20036;-79
2022/01/22 07:50:13;;;;;;;6.43;2.65;;;;;;;;;;5099899;28;20024;-79
2022/01/22 07:52:38;;;;;;;4.57;2.28;;;;;;;;;;5101190;28;20149;-79
2022/01/22 07:55:06;;;;;;;2.80;1.90;;;;;;;;;;5100016;28;20024;-78
2022/01/22 07:57:31;;;;;;;3.90;2.22;;;;;;;;;;5102632;28;20027;-79
2022/01/22 07:59:56;;;;;;;4.28;2.25;;;;;;;;;;5102376;28;20060;-79
2022/01/22 08:02:22;;;;;;;2.95;1.85;;;;;;;;;;5099520;28;20024;-78
2022/01/22 08:04:47;;;;;;;5.00;2.25;;;;;;;;;;5105537;28;20084;-78
2022/01/22 08:07:12;;;;;;;4.63;1.98;;;;;;;;;;5105772;28;20024;-79
2022/01/22 08:09:37;;;;;;;3.20;2.08;;;;;;;;;;5117531;28;20031;-79
2022/01/22 08:12:03;;;;;;;4.35;2.30;;;;;;;;;;5107084;28;20027;-80
2022/01/22 08:14:29;;;;;;;3.58;2.00;;;;;;;;;;5097817;28;20400;-81
2022/01/22 08:16:54;;;;;;;5.22;2.17;;;;;;;;;;5096998;28;20077;-81
2022/01/22 08:19:20;;;;;;;5.30;1.65;;;;;;;;;;5097653;28;20045;-82
2022/01/22 08:21:46;;;;;;;3.10;1.95;;;;;;;;;;5097114;28;20500;-80
2022/01/22 08:24:14;;;;;;;3.90;1.80;;;;;;;;;;5097507;28;20028;-81
2022/01/22 08:26:46;;;;;;;3.15;1.83;;;;;;;;;;5097217;28;20051;-80
2022/01/22 08:29:11;;;;;;;4.90;1.92;;;;;;;;;;5099024;28;20028;-81
2022/01/22 08:31:46;;;;;;;4.50;2.08;;;;;;;;;;5098364;28;20366;-80
2022/01/22 08:36:55;;;;;;;4.18;2.03;;;;;;;;;;5099362;28;20038;-81
2022/01/22 08:39:21;;;;;;;4.85;2.10;;;;;;;;;;5100462;28;20055;-79
2022/01/22 08:41:47;;;;;;;3.38;1.88;;;;;;;;;;5097731;28;20069;-79
2022/01/22 08:44:13;;;;;;;3.75;2.30;;;;;;;;;;5097752;28;20031;-80
2022/01/22 08:46:38;;;;;;;1.52;1.38;;;;;;;;;;5097697;28;20036;-80
2022/01/22 08:49:05;;;;;;;3.58;2.10;;;;;;;;;;5096345;28;20152;-80
2022/01/22 08:51:34;;;;;;;2.75;1.85;;;;;;;;;;5094736;28;20093;-78
2022/01/22 08:54:03;;;;;;;4.20;2.20;;;;;;;;;;5095310;28;20128;-78
2022/01/22 08:56:31;;;;;;;1.50;1.23;;;;;;;;;;5095839;28;20030;-80
2022/01/22 08:58:56;;;;;;;4.18;2.10;;;;;;;;;;5095492;28;20038;-79
2022/01/22 09:01:22;;;;;;;2.28;1.20;;;;;;;;;;5098293;28;20024;-79
2022/01/22 09:03:49;;;;;;;2.67;1.80;;;;;;;;;;5096414;28;20024;-79
2022/01/22 09:06:14;;;;;;;7.07;1.75;;;;;;;;;;5099015;28;20026;-79
2022/01/22 09:08:44;;;;;;;5.22;2.30;;;;;;;;;;5099275;28;20529;-79
2022/01/22 09:11:12;;;;;;;7.70;2.17;;;;;;;;;;5098486;28;20024;-81
2022/01/22 09:13:38;;;;;;;4.03;2.10;;;;;;;;;;5099852;28;20051;-80
2022/01/22 09:16:04;;;;;;;3.35;2.03;;;;;;;;;;5097624;28;20070;-79
2022/01/22 09:18:30;;;;;;;4.00;2.30;;;;;;;;;;5100485;28;20024;-80
2022/01/22 09:21:02;;;;;;;3.17;1.95;;;;;;;;;;5100734;28;20027;-80
2022/01/22 09:23:29;;;;;;;4.80;2.20;;;;;;;;;;5101957;28;20028;-79
2022/01/22 09:25:55;;;;;;;2.80;1.50;;;;;;;;;;5102347;28;20359;-79
2022/01/22 09:28:21;;;;;;;5.85;2.00;;;;;;;;;;5102571;28;20023;-79
2022/01/22 09:30:47;;;;;;;3.92;1.83;;;;;;;;;;5101915;28;20028;-80
2022/01/22 09:33:13;;;;;;;4.20;2.20;;;;;;;;;;5101806;28;20481;-81
2022/01/22 09:35:38;;;;;;;5.90;2.50;;;;;;;;;;5102185;28;20031;-79
2022/01/22 09:38:03;;;;;;;4.20;2.50;;;;;;;;;;5099816;28;20118;-80
2022/01/22 09:40:29;;;;;;;4.85;2.35;;;;;;;;;;5101474;28;20020;-81
2022/01/22 09:42:56;;;;;;;5.95;2.65;;;;;;;;;;5102557;28;20027;-79
2022/01/22 09:45:22;;;;;;;5.20;2.47;;;;;;;;;;5101910;28;20111;-79
2022/01/22 09:47:49;;;;;;;5.18;1.40;;;;;;;;;;5102439;28;20036;-79
2022/01/22 09:50:20;;;;;;;4.93;2.58;;;;;;;;;;5101690;28;20032;-79
2022/01/22 09:52:45;;;;;;;1.88;1.25;;;;;;;;;;5101045;28;20572;-79
2022/01/22 09:55:15;;;;;;;3.97;2.05;;;;;;;;;;5100664;28;20069;-79
2022/01/22 09:57:41;;;;;;;4.25;2.22;;;;;;;;;;5102400;28;20484;-79
2022/01/22 10:00:15;;;;;;;6.63;2.30;;;;;;;;;;5101945;28;20137;-79
2022/01/22 10:02:43;;;;;;;4.13;2.00;;;;;;;;;;5102566;28;20141;-79
2022/01/22 10:05:35;;;;;;;3.65;1.83;;;;;;;;;;5098329;28;20027;-78
2022/01/22 10:08:31;;;;;;;2.22;1.30;;;;;;;;;;5098283;28;20481;-79
2022/01/22 10:11:01;;;;;;;1.77;1.05;;;;;;;;;;5098035;28;20032;-81
2022/01/22 10:13:41;;;;;;;1.77;1.10;;;;;;;;;;5100141;28;20032;-79
2022/01/22 10:16:27;;;;;;;3.75;1.33;;;;;;;;;;5100723;28;20024;-79
2022/01/22 10:19:16;;;;;;;1.50;0.90;;;;;;;;;;5099867;28;20024;-79
2022/01/22 10:21:50;;;;;;;3.92;1.23;;;;;;;;;;5100976;28;20541;-79
2022/01/22 10:27:25;;;;;;;3.63;1.40;;;;;;;;;;5103136;28;20032;-80
2022/01/22 10:30:00;;;;;;;2.42;1.20;;;;;;;;;;5102444;28;20028;-79
2022/01/22 10:32:41;;;;;;;1.35;1.00;;;;;;;;;;5101902;28;20020;-80
2022/01/22 10:35:12;;;;;;;3.35;1.30;;;;;;;;;;5102927;28;20080;-79
2022/01/22 10:37:38;;;;;;;3.38;1.30;;;;;;;;;;5102881;28;20024;-80
2022/01/22 10:40:37;;;;;;;4.38;1.20;;;;;;;;;;5102612;28;20121;-79
2022/01/22 10:43:22;;;;;;;6.85;2.15;;;;;;;;;;5059703;28;20043;-79
2022/01/22 10:46:10;;;;;;;3.22;1.30;;;;;;;;;;5102819;28;20073;-79
2022/01/22 10:48:38;;;;;;;3.03;1.30;;;;;;;;;;5101152;28;20520;-79
2022/01/22 10:51:24;;;;;;;2.97;1.30;;;;;;;;;;5102234;28;20034;-80
2022/01/22 10:53:53;;;;;;;2.97;1.00;;;;;;;;;;5100808;28;20024;-80
2022/01/22 10:56:22;;;;;;;2.47;1.50;;;;;;;;;;5100351;28;20016;-80
2022/01/22 10:59:00;;;;;;;3.40;1.40;;;;;;;;;;5099138;28;20439;-80
2022/01/22 11:01:31;;;;;;;2.00;1.17;;;;;;;;;;5099236;28;20038;-80
2022/01/22 11:04:09;;;;;;;1.45;0.85;;;;;;;;;;5097343;28;20493;-79
2022/01/22 11:06:40;;;;;;;2.35;1.00;;;;;;;;;;5097173;28;20085;-80
2022/01/22 11:09:15;;;;;;;2.45;1.13;;;;;;;;;;5098149;28;20020;-80
2022/01/22 11:11:41;;;;;;;2.28;1.20;;;;;;;;;;5098691;28;20031;-80
2022/01/22 11:14:08;;;;;;;4.10;1.33;;;;;;;;;;5096873;28;20040;-80
2022/01/22 11:16:36;;;;;;;3.15;0.95;;;;;;;;;;5098717;28;20028;-81
2022/01/22 11:19:03;;;;;;;2.42;1.08;;;;;;;;;;5098764;28;20020;-80
2022/01/22 11:21:30;;;;;;;3.13;1.20;;;;;;;;;;5096667;28;20020;-81
2022/01/22 11:23:55;;;;;;;3.17;1.13;;;;;;;;;;5097386;28;20397;-81
2022/01/22 11:26:20;;;;;;;2.85;1.30;;;;;;;;;;5097667;28;20040;-80
2022/01/22 11:28:51;;;;;;;3.40;1.10;;;;;;;;;;5098445;28;20081;-79
2022/01/22 11:31:17;;;;;;;3.22;1.20;;;;;;;;;;5098732;28;20032;-80
2022/01/22 11:33:46;;;;;;;1.60;1.00;;;;;;;;;;5096775;28;20042;-79
2022/01/22 11:36:43;;;;;;;1.90;0.80;;;;;;;;;;5098941;28;20020;-80
2022/01/22 11:39:17;;;;;;;2.42;0.90;;;;;;;;;;5071042;28;20038;-79
2022/01/22 11:41:57;;;;;;;;;;;;;;;;;;5097858;28;20492;-80
2022/01/22 11:44:28;;;;;;;1.13;0.90;;;;;;;;;;5095767;28;19953;-80
2022/01/22 11:47:07;;;;;;;2.85;0.90;;;;;;;;;;5098103;28;20420;-81
2022/01/22 11:49:32;;;;;;;5.78;1.05;;;;;;;;;;5097115;28;20039;-79
2022/01/22 11:52:10;;;;;;;0.65;0.50;;;;;;;;;;5097494;28;20032;-79
2022/01/22 11:54:55;;;;;;;4.30;1.23;;;;;;;;;;5096203;28;20030;-80
2022/01/22 11:57:22;;;;;;;2.53;1.13;;;;;;;;;;5096979;28;20023;-79
2022/01/22 12:00:08;;;;;;;3.58;1.20;;;;;;;;;;5098429;28;20494;-81
2022/01/22 12:02:33;;;;;;;1.98;1.25;;;;;;;;;;5096292;28;20024;-79
2022/01/22 12:05:04;;;;;;;2.42;1.30;;;;;;;;;;5097782;28;20035;-80
2022/01/22 12:07:35;;;;;;;3.90;1.33;;;;;;;;;;5097184;28;20020;-80
2022/01/22 12:10:15;;;;;;;4.47;1.42;;;;;;;;;;5096834;28;20342;-79
2022/01/22 12:15:30;;;;;;;2.65;1.20;;;;;;;;;;5096838;28;20511;-81
2022/01/22 12:18:07;;;;;;;3.35;1.20;;;;;;;;;;5097159;28;20031;-79
2022/01/22 12:23:07;;;;;;;4.95;1.35;;;;;;;;;;5097637;28;20035;-79
2022/01/22 12:25:36;;;;;;;4.93;1.08;;;;;;;;;;5096419;28;20049;-79
2022/01/22 12:28:03;;;;;;;3.35;1.10;;;;;;;;;;5098147;28;20036;-79
2022/01/22 12:30:44;;;;;;;4.15;1.40;;;;;;;;;;5097752;28;20028;-80
2022/01/22 12:33:45;;;;;;;2.03;1.10;;;;;;;;;;5098084;28;20094;-80
2022/01/22 12:36:18;;;;;;;2.60;1.40;;;;;;;;;;5063932;28;20032;-78
2022/01/22 12:38:56;;;;;;;4.17;1.30;;;;;;;;;;5098126;28;20020;-80
2022/01/22 12:43:50;;;;;;;3.42;1.45;;;;;;;;;;5099758;28;20493;-80
2022/01/22 12:46:15;;;;;;;5.43;1.38;;;;;;;;;;5098150;28;20035;-80
2022/01/22 12:48:42;;;;;;;2.30;1.20;;;;;;;;;;5096861;28;20056;-79
2022/01/22 12:51:09;;;;;;;3.03;1.17;;;;;;;;;;5098245;28;20038;-80
2022/01/22 12:53:35;;;;;;;3.72;1.20;;;;;;;;;;5098301;28;20139;-79
2022/01/22 12:56:24;;;;;;;4.22;1.10;;;;;;;;;;5098241;28;20024;-79
2022/01/22 12:58:46;;;;;;;4.53;1.30;;;;;;;;;;5097115;28;20039;-79
2022/01/22 13:01:18;;;;;;;2.72;1.20;;;;;;;;;;5097540;28;20028;-80
2022/01/22 13:03:47;;;;;;;2.40;1.00;;;;;;;;;;5096543;28;20031;-79
2022/01/22 13:06:13;;;;;;;1.92;1.08;;;;;;;;;;5096344;28;20024;-79
2022/01/22 13:08:40;;;;;;;1.40;0.60;;;;;;;;;;5096832;28;20393;-80
2022/01/22 13:11:10;;;;;;;3.13;1.13;;;;;;;;;;5096355;28;20028;-80
2022/01/22 13:13:39;;;;;;;2.25;1.30;;;;;;;;;;5095483;28;20027;-79
2022/01/22 13:16:13;;;;;;;2.00;1.20;;;;;;;;;;5096826;28;20032;-79
2022/01/22 13:18:47;;;;;;;;;;;;;;;;;;5097555;28;20042;-79
2022/01/22 13:21:14;;;;;;;7.75;1.23;;;;;;;;;;5097004;28;19914;-80
2022/01/22 13:23:40;;;;;;;3.30;1.35;;;;;;;;;;5095631;28;20077;-80
2022/01/22 13:26:07;;;;;;;3.92;1.23;;;;;;;;;;5096904;28;20058;-77
2022/01/22 13:28:33;;;;;;;4.47;1.50;;;;;;;;;;5096549;28;20411;-79
2022/01/22 13:31:06;;;;;;;4.93;1.30;;;;;;;;;;5096536;28;20016;-79
2022/01/22 13:33:38;;;;;;;4.13;1.20;;;;;;;;;;5095261;28;20126;-79
2022/01/22 13:49:40;;;;;;;3.35;1.50;;;;;;;;;;5097612;28;20029;-78
2022/01/22 13:52:08;;;;;;;3.53;1.35;;;;;;;;;;5095383;28;20196;-79
2022/01/22 13:54:46;;;;;;;5.15;1.50;;;;;;;;;;5095923;28;20538;-79
2022/01/22 13:57:16;;;;;;;3.00;1.30;;;;;;;;;;5095332;28;20441;-79
2022/01/22 13:59:44;;;;;;;6.28;1.42;;;;;;;;;;5095381;28;20016;-79
2022/01/22 14:04:49;;;;;;;6.93;1.70;;;;;;;;;;5097888;28;20035;-79
2022/01/22 14:07:18;;;;;;;3.42;1.42;;;;;;;;;;5096403;28;20032;-79
2022/01/22 14:10:07;;;;;;;6.07;2.08;;;;;;;;;;5099625;28;20099;-79
2022/01/22 14:12:44;;;;;;;4.13;1.60;;;;;;;;;;5100307;28;20043;-78
2022/01/22 14:15:27;;;;;;;7.07;2.38;;;;;;;;;;5099361;28;20020;-79
2022/01/22 14:20:49;;;;;;;4.40;1.77;;;;;;;;;;5100028;28;20012;-79
2022/01/22 14:23:17;;;;;;;3.00;1.75;;;;;;;;;;5099064;28;20023;-79
2022/01/22 14:25:58;;;;;;;4.18;1.75;;;;;;;;;;5097917;28;20089;-79
2022/01/22 14:28:36;;;;;;;5.32;1.55;;;;;;;;;;5099319;28;20025;-79
2022/01/22 14:31:15;;;;;;;2.30;1.50;;;;;;;;;;5098420;28;20027;-78
2022/01/22 14:33:41;;;;;;;6.82;2.00;;;;;;;;;;5099104;28;20070;-78
2022/01/22 14:36:06;;;;;;;5.07;1.70;;;;;;;;;;5099353;28;20034;-78
2022/01/22 14:38:59;;;;;;;6.10;1.95;;;;;;;;;;5098630;28;20020;-78
2022/01/22 14:46:53;;;;;;;3.50;1.77;;;;;;;;;;5099294;28;20119;-79
2022/01/22 14:49:24;;;;;;;4.45;1.70;;;;;;;;;;5098207;28;20024;-79
2022/01/22 14:51:49;;;;;;;2.70;1.70;;;;;;;;;;5099275;28;20027;-79
2022/01/22 14:54:15;;;;;;;5.25;1.70;;;;;;;;;;5098476;28;20024;-79
2022/01/22 14:56:42;;;;;;;5.18;2.10;;;;;;;;;;5098697;28;20024;-79
2022/01/22 14:59:07;;;;;;;6.25;1.63;;;;;;;;;;5099413;28;20051;-80
2022/01/22 15:01:32;;;;;;;5.32;2.00;;;;;;;;;;5099643;28;20534;-79
2022/01/22 15:03:58;;;;;;;4.32;1.38;;;;;;;;;;5097818;28;20047;-80
2022/01/22 15:06:23;;;;;;;6.88;2.00;;;;;;;;;;5098670;28;20370;-80
2022/01/22 15:08:48;;;;;;;4.05;1.77;;;;;;;;;;5098692;28;20024;-79
2022/01/22 15:11:14;;;;;;;7.00;1.98;;;;;;;;;;5098770;28;20028;-77
2022/01/22 15:13:39;;;;;;;4.18;1.88;;;;;;;;;;5099151;28;20077;-81
2022/01/22 15:16:04;;;;;;;3.72;1.85;;;;;;;;;;5097858;28;20024;-80
2022/01/22 15:21:07;;;;;;;5.05;2.33;;;;;;;;;;5098821;28;20033;-79
2022/01/22 15:23:32;;;;;;;4.78;2.13;;;;;;;;;;5098696;28;20024;-79
2022/01/22 15:25:57;;;;;;;6.93;2.35;;;;;;;;;;5098213;28;20481;-79
2022/01/22 15:28:25;;;;;;;4.55;2.13;;;;;;;;;;5098657;28;20121;-80
2022/01/22 15:30:53;;;;;;;6.57;2.10;;;;;;;;;;5096889;28;20020;-79
2022/01/22 15:33:22;;;;;;;4.18;1.83;;;;;;;;;;5098239;28;20471;-79
2022/01/22 15:35:48;;;;;;;5.82;2.47;;;;;;;;;;5098599;28;20020;-79
2022/01/22 15:38:16;;;;;;;9.55;2.47;;;;;;;;;;5099332;28;20020;-80
2022/01/22 15:40:45;;;;;;;11.02;2.70;;;;;;;;;;5097011;28;20047;-80
2022/01/22 15:43:11;;;;;;;4.28;2.10;;;;;;;;;;5097970;28;20020;-79
2022/01/22 15:45:37;;;;;;;5.85;2.45;;;;;;;;;;5098499;28;20059;-80
2022/01/22 15:48:04;;;;;;;5.03;2.20;;;;;;;;;;5097218;28;20028;-79
2022/01/22 15:50:29;;;;;;;4.97;2.30;;;;;;;;;;5098114;28;20519;-79
2022/01/22 15:52:54;;;;;;;5.55;2.53;;;;;;;;;;5099059;28;20035;-79
2022/01/22 15:55:20;;;;;;;9.23;2.47;;;;;;;;;;5097649;28;20024;-79
2022/01/22 15:57:45;;;;;;;6.32;2.47;;;;;;;;;;5097930;28;20024;-79
2022/01/22 16:00:12;;;;;;;7.68;2.60;;;;;;;;;;5098519;28;20016;-79
2022/01/22 16:02:38;;;;;;;5.00;2.58;;;;;;;;;;5097785;28;20024;-79
2022/01/22 16:05:05;;;;;;;12.77;2.92;;;;;;;;;;5098323;28;20102;-79
2022/01/22 16:07:32;;;;;;;7.32;2.78;;;;;;;;;;5098299;28;20036;-79
2022/01/22 16:09:58;;;;;;;6.75;2.65;;;;;;;;;;5098636;28;20020;-78
2022/01/22 16:12:25;;;;;;;6.22;2.92;;;;;;;;;;5097164;28;20035;-80
2022/01/22 16:14:50;;;;;;;7.38;2.47;;;;;;;;;;5098217;28;20027;-79
2022/01/22 16:17:18;;;;;;;6.57;2.67;;;;;;;;;;5097619;28;20028;-79
2022/01/22 16:19:44;;;;;;;6.13;2.83;;;;;;;;;;5096632;28;20107;-79
2022/01/22 16:22:09;;;;;;;5.68;2.38;;;;;;;;;;5098531;28;20121;-80
2022/01/22 16:24:35;;;;;;;7.20;2.97;;;;;;;;;;5097477;28;20062;-80
2022/01/22 16:27:02;;;;;;;5.70;2.75;;;;;;;;;;5097503;28;20027;-80
2022/01/22 16:29:27;;;;;;;4.03;2.53;;;;;;;;;;5098142;28;20024;-80
2022/01/22 16:31:53;;;;;;;7.43;3.28;;;;;;;;;;5097899;28;20081;-79
2022/01/22 16:34:18;;;;;;;6.60;2.78;;;;;;;;;;5099278;28;20032;-79
2022/01/22 16:36:44;;;;;;;7.32;3.47;;;;;;;;;;5098641;28;20028;-80
2022/01/22 16:39:09;;;;;;;10.43;3.90;;;;;;;;;;5096979;28;20111;-79
2022/01/22 16:41:35;;;;;;;10.88;4.45;;;;;;;;;;5099408;28;20070;-80